createdAt,value
2019-06-08T00:00:15.247Z,0.60
2019-06-08T00:02:44.976Z,0.50
2019-06-08T00:05:14.706Z,0.60
2019-06-08T00:07:43.845Z,0.37
2019-06-08T00:10:14.627Z,0.40
2019-06-08T00:12:43.710Z,0.60
2019-06-08T00:15:14.042Z,0.57
2019-06-08T00:17:43.029Z,0.80
2019-06-08T00:20:13.426Z,0.63
2019-06-08T00:22:42.572Z,0.47
2019-06-08T00:25:12.270Z,1.00
2019-06-08T00:27:41.246Z,0.50
2019-06-08T00:30:10.711Z,0.60
2019-06-08T00:32:39.734Z,0.60
2019-06-08T00:35:08.832Z,0.43
2019-06-08T00:37:37.811Z,0.67
2019-06-08T00:40:07.941Z,0.40
2019-06-08T00:42:36.887Z,0.60
2019-06-08T00:45:07.354Z,0.40
2019-06-08T00:47:47.557Z,0.60
2019-06-08T00:50:07.706Z,0.50
2019-06-08T00:52:36.900Z,0.40
2019-06-08T00:55:07.378Z,0.80
2019-06-08T00:57:36.465Z,0.80
2019-06-08T01:00:10.561Z,0.50
2019-06-08T01:02:37.179Z,0.47
2019-06-08T01:05:07.276Z,0.60
2019-06-08T01:07:36.187Z,0.60
2019-06-08T01:10:07.235Z,0.50
2019-06-08T01:12:36.330Z,0.50
2019-06-08T01:15:09.439Z,0.60
2019-06-08T01:17:38.503Z,0.67
2019-06-08T01:20:07.895Z,0.63
2019-06-08T01:22:36.885Z,0.80
2019-06-08T01:25:07.196Z,0.50
2019-06-08T01:27:36.222Z,0.50
2019-06-08T01:30:09.478Z,0.60
2019-06-08T01:32:38.575Z,0.50
2019-06-08T01:35:08.010Z,0.63
2019-06-08T01:37:36.971Z,0.70
2019-06-08T01:40:09.193Z,0.30
2019-06-08T01:42:38.110Z,0.40
2019-06-08T01:45:09.014Z,0.60
2019-06-08T01:47:37.921Z,0.60
2019-06-08T01:50:07.131Z,0.60
2019-06-08T01:52:36.313Z,0.57
2019-06-08T01:55:08.254Z,0.70
2019-06-08T01:57:37.208Z,0.87
2019-06-08T02:00:29.355Z,0.67
2019-06-08T02:02:38.147Z,0.70
2019-06-08T02:05:07.729Z,0.73
2019-06-08T02:07:36.922Z,0.60
2019-06-08T02:10:10.244Z,0.50
2019-06-08T02:12:39.197Z,0.50
2019-06-08T02:15:09.297Z,0.50
2019-06-08T02:17:38.315Z,0.60
2019-06-08T02:20:09.101Z,0.77
2019-06-08T02:22:39.363Z,0.40
2019-06-08T02:25:09.867Z,0.50
2019-06-08T02:27:39.718Z,0.60
2019-06-08T02:30:13.246Z,0.37
2019-06-08T02:32:42.323Z,0.50
2019-06-08T02:35:12.386Z,0.60
2019-06-08T02:37:41.367Z,0.80
2019-06-08T02:40:10.648Z,0.80
2019-06-08T02:42:40.209Z,0.87
2019-06-08T02:45:09.853Z,0.90
2019-06-08T02:47:40.901Z,0.60
2019-06-08T02:50:09.866Z,0.70
2019-06-08T02:52:40.850Z,0.70
2019-06-08T02:55:10.101Z,0.53
2019-06-08T02:57:40.041Z,0.60
2019-06-08T03:00:10.619Z,0.50
2019-06-08T03:02:42.795Z,0.70
2019-06-08T03:05:12.147Z,0.53
2019-06-08T03:07:42.951Z,0.77
2019-06-08T03:10:12.226Z,0.60
2019-06-08T03:12:44.168Z,0.50
2019-06-08T03:15:16.174Z,0.80
2019-06-08T03:17:45.142Z,0.70
2019-06-08T03:20:14.531Z,0.73
2019-06-08T03:22:44.108Z,0.67
2019-06-08T03:25:13.345Z,0.70
2019-06-08T03:27:43.153Z,0.77
2019-06-08T03:30:17.667Z,0.57
2019-06-08T03:32:53.789Z,0.70
2019-06-08T03:35:13.820Z,0.47
2019-06-08T03:37:44.273Z,0.70
2019-06-08T03:40:14.131Z,0.80
2019-06-08T03:42:43.149Z,0.63
2019-06-08T03:45:12.580Z,0.60
2019-06-08T03:47:43.457Z,0.93
2019-06-08T03:50:12.887Z,0.80
2019-06-08T03:52:43.506Z,0.90
2019-06-08T03:55:12.730Z,0.80
2019-06-08T03:57:42.170Z,0.57
2019-06-08T04:00:13.490Z,0.60
2019-06-08T04:02:44.137Z,0.60
2019-06-08T04:05:13.308Z,0.60
2019-06-08T04:07:44.091Z,1.00
2019-06-08T04:10:13.253Z,0.70
2019-06-08T04:12:44.049Z,0.97
2019-06-08T04:15:13.486Z,0.70
2019-06-08T04:17:44.084Z,0.77
2019-06-08T04:20:13.572Z,0.77
2019-06-08T04:22:47.276Z,1.17
2019-06-08T04:25:16.624Z,0.70
2019-06-08T04:27:47.000Z,0.73
2019-06-08T04:30:16.796Z,0.70
2019-06-08T04:32:47.568Z,0.90
2019-06-08T04:35:16.680Z,1.20
2019-06-08T04:37:46.993Z,0.80
2019-06-08T04:40:16.453Z,1.10
2019-06-08T04:42:46.704Z,0.83
2019-06-08T04:45:16.664Z,0.83
2019-06-08T04:47:47.631Z,0.70
2019-06-08T04:50:23.537Z,0.70
2019-06-08T04:52:49.983Z,0.60
2019-06-08T04:55:18.864Z,0.60
2019-06-08T04:57:48.819Z,0.67
2019-06-08T05:00:19.615Z,0.60
2019-06-08T05:02:50.825Z,0.90
2019-06-08T05:05:19.322Z,0.70
2019-06-08T05:07:50.234Z,1.03
2019-06-08T05:10:19.210Z,0.70
2019-06-08T05:12:50.013Z,0.80
2019-06-08T05:15:19.285Z,1.20
2019-06-08T05:17:49.707Z,1.00
2019-06-08T05:20:19.330Z,0.80
2019-06-08T05:22:49.778Z,0.83
2019-06-08T05:25:18.974Z,1.40
2019-06-08T05:27:49.476Z,0.93
2019-06-08T05:30:20.592Z,0.93
2019-06-08T05:32:49.943Z,1.00
2019-06-08T05:35:19.035Z,1.10
2019-06-08T05:37:48.000Z,0.70
2019-06-08T05:40:17.467Z,1.10
2019-06-08T05:42:47.759Z,1.07
2019-06-08T05:45:17.308Z,2.37
2019-06-08T05:47:46.285Z,3.90
2019-06-08T05:50:15.590Z,1.20
2019-06-08T05:52:45.809Z,1.00
2019-06-08T05:55:15.023Z,1.00
2019-06-08T05:57:44.230Z,0.90
2019-06-08T06:00:13.819Z,2.30
2019-06-08T06:02:43.229Z,1.00
2019-06-08T06:05:12.894Z,1.10
2019-06-08T06:07:42.667Z,1.13
2019-06-08T06:10:12.104Z,1.13
2019-06-08T06:12:42.984Z,0.90
2019-06-08T06:15:12.332Z,0.90
2019-06-08T06:17:41.450Z,1.00
2019-06-08T06:20:11.252Z,1.40
2019-06-08T06:22:42.408Z,1.00
2019-06-08T06:25:12.895Z,1.10
2019-06-08T06:27:43.334Z,1.00
2019-06-08T06:30:13.582Z,1.30
2019-06-08T06:32:43.813Z,1.60
2019-06-08T06:35:13.479Z,1.00
2019-06-08T06:37:43.746Z,1.00
2019-06-08T06:40:12.987Z,1.30
2019-06-08T06:42:42.084Z,1.10
2019-06-08T06:45:11.305Z,1.10
2019-06-08T06:47:40.235Z,1.50
2019-06-08T06:50:09.418Z,1.30
2019-06-08T06:52:38.368Z,1.20
2019-06-08T06:55:08.065Z,1.10
2019-06-08T06:57:37.076Z,0.97
2019-06-08T07:00:08.262Z,1.30
2019-06-08T07:02:37.548Z,1.10
2019-06-08T07:05:07.314Z,1.90
2019-06-08T07:07:36.280Z,1.60
2019-06-08T07:10:09.953Z,1.30
2019-06-08T07:12:38.965Z,1.20
2019-06-08T07:15:09.374Z,1.30
2019-06-08T07:17:38.310Z,1.30
2019-06-08T07:20:08.427Z,1.20
2019-06-08T07:22:37.628Z,1.17
2019-06-08T07:25:07.334Z,1.80
2019-06-08T07:27:36.408Z,0.90
2019-06-08T07:30:07.639Z,1.27
2019-06-08T07:32:36.721Z,1.60
2019-06-08T07:35:07.045Z,1.10
2019-06-08T07:37:36.192Z,0.77
2019-06-08T07:40:09.726Z,1.30
2019-06-08T07:42:38.663Z,1.23
2019-06-08T07:45:08.482Z,1.30
2019-06-08T07:47:37.503Z,1.00
2019-06-08T07:50:09.138Z,1.10
2019-06-08T07:52:38.082Z,1.60
2019-06-08T07:55:07.368Z,1.30
2019-06-08T07:57:39.299Z,1.00
2019-06-08T08:00:09.869Z,1.20
2019-06-08T08:02:38.979Z,1.47
2019-06-08T08:05:08.105Z,1.27
2019-06-08T08:07:37.085Z,1.30
2019-06-08T08:10:08.147Z,1.70
2019-06-08T08:12:40.367Z,1.50
2019-06-08T08:15:09.650Z,1.00
2019-06-08T08:17:38.752Z,1.37
2019-06-08T08:20:09.256Z,1.03
2019-06-08T08:22:39.840Z,0.90
2019-06-08T08:25:09.946Z,1.20
2019-06-08T08:27:39.061Z,1.50
2019-06-08T08:30:09.209Z,0.83
2019-06-08T08:32:38.235Z,1.10
2019-06-08T08:35:08.745Z,1.20
2019-06-08T08:37:38.237Z,1.43
2019-06-08T08:40:08.647Z,1.10
2019-06-08T08:42:38.663Z,1.07
2019-06-08T08:45:09.115Z,1.57
2019-06-08T08:47:38.876Z,2.83
2019-06-08T08:50:08.401Z,1.20
2019-06-08T08:52:40.767Z,1.43
2019-06-08T08:55:08.550Z,1.50
2019-06-08T08:57:41.174Z,1.57
2019-06-08T09:00:09.449Z,1.23
2019-06-08T09:02:38.414Z,1.30
2019-06-08T09:05:08.583Z,1.20
2019-06-08T09:07:38.502Z,1.93
2019-06-08T09:10:11.188Z,1.30
2019-06-08T09:12:39.169Z,1.30
2019-06-08T09:15:08.757Z,1.37
2019-06-08T09:17:38.851Z,1.17
2019-06-08T09:20:13.031Z,1.17
2019-06-08T09:22:52.968Z,1.27
2019-06-08T09:25:13.390Z,0.83
2019-06-08T09:27:41.107Z,1.50
2019-06-08T09:30:10.440Z,1.63
2019-06-08T09:32:39.549Z,1.37
2019-06-08T09:35:09.693Z,1.47
2019-06-08T09:37:38.810Z,1.47
2019-06-08T09:40:08.017Z,1.30
2019-06-08T09:42:36.999Z,1.00
2019-06-08T09:45:08.946Z,1.53
2019-06-08T09:47:38.394Z,1.60
2019-06-08T09:50:09.253Z,1.20
2019-06-08T09:52:41.181Z,1.70
2019-06-08T09:55:09.810Z,1.10
2019-06-08T09:57:39.119Z,1.30
2019-06-08T10:00:17.831Z,1.80
2019-06-08T10:02:39.722Z,1.47
2019-06-08T10:05:09.023Z,1.43
2019-06-08T10:07:38.941Z,1.47
2019-06-08T10:10:09.744Z,1.23
2019-06-08T10:12:41.153Z,1.57
2019-06-08T10:15:10.473Z,0.90
2019-06-08T10:17:39.571Z,1.30
2019-06-08T10:20:10.179Z,1.40
2019-06-08T10:22:39.304Z,1.30
2019-06-08T10:25:11.240Z,1.20
2019-06-08T10:27:40.523Z,1.60
2019-06-08T10:30:10.876Z,1.23
2019-06-08T10:32:40.043Z,1.10
2019-06-08T10:35:10.834Z,1.30
2019-06-08T10:37:40.156Z,1.73
2019-06-08T10:40:09.803Z,1.17
2019-06-08T10:42:40.192Z,1.50
2019-06-08T10:45:14.662Z,1.30
2019-06-08T10:47:42.213Z,1.47
2019-06-08T10:50:15.277Z,1.17
2019-06-08T10:52:42.971Z,1.50
2019-06-08T10:55:14.624Z,1.20
2019-06-08T10:57:43.673Z,1.50
2019-06-08T11:00:23.316Z,1.50
2019-06-08T11:02:48.707Z,1.20
2019-06-08T11:05:18.067Z,1.17
2019-06-08T11:07:47.998Z,1.33
2019-06-08T11:10:19.091Z,1.40
2019-06-08T11:12:48.619Z,1.40
2019-06-08T11:15:18.011Z,1.60
2019-06-08T11:17:46.966Z,1.50
2019-06-08T11:20:16.235Z,1.40
2019-06-08T11:22:49.766Z,1.07
2019-06-08T11:25:19.652Z,1.20
2019-06-08T11:27:47.533Z,1.70
2019-06-08T11:30:23.461Z,1.90
2019-06-08T11:32:48.086Z,1.47
2019-06-08T11:35:17.780Z,1.93
2019-06-08T11:37:48.871Z,1.30
2019-06-08T11:40:20.682Z,1.30
2019-06-08T11:42:48.674Z,1.40
2019-06-08T11:45:18.230Z,1.00
2019-06-08T11:47:48.491Z,1.20
2019-06-08T11:50:20.698Z,1.13
2019-06-08T11:52:49.662Z,1.07
2019-06-08T11:55:18.698Z,1.40
2019-06-08T11:57:48.789Z,1.30
2019-06-08T12:00:30.231Z,1.40
2019-06-08T12:02:58.129Z,1.37
2019-06-08T12:05:27.839Z,1.77
2019-06-08T12:07:57.849Z,1.70
2019-06-08T12:10:28.538Z,2.33
2019-06-08T12:12:57.634Z,5.87
2019-06-08T12:15:28.676Z,1.57
2019-06-08T12:17:58.683Z,1.20
2019-06-08T12:20:28.055Z,1.20
2019-06-08T12:22:57.275Z,1.60
2019-06-08T12:25:26.219Z,1.03
2019-06-08T12:27:55.250Z,1.27
2019-06-08T12:30:26.238Z,1.43
2019-06-08T12:32:54.980Z,1.50
2019-06-08T12:35:23.930Z,1.43
2019-06-08T12:37:52.874Z,1.60
2019-06-08T12:40:22.135Z,1.40
2019-06-08T12:42:51.074Z,1.27
2019-06-08T12:45:20.470Z,1.40
2019-06-08T12:47:49.641Z,1.20
2019-06-08T12:50:19.954Z,1.20
2019-06-08T12:52:49.209Z,2.87
2019-06-08T12:55:24.680Z,1.43
2019-06-08T12:57:51.525Z,1.33
2019-06-08T13:00:21.564Z,1.37
2019-06-08T13:02:50.999Z,1.23
2019-06-08T13:05:22.606Z,1.20
2019-06-08T13:07:51.200Z,1.10
2019-06-08T13:10:24.011Z,1.37
2019-06-08T13:12:51.062Z,1.53
2019-06-08T13:15:22.096Z,1.63
2019-06-08T13:17:51.192Z,1.30
2019-06-08T13:20:22.422Z,1.07
2019-06-08T13:22:51.525Z,1.67
2019-06-08T13:25:36.161Z,1.27
2019-06-08T13:27:51.267Z,1.50
2019-06-08T13:30:25.859Z,1.33
2019-06-08T13:32:51.269Z,1.13
2019-06-08T13:35:22.161Z,1.30
2019-06-08T13:37:51.024Z,1.30
2019-06-08T13:40:23.487Z,1.50
2019-06-08T13:42:51.203Z,1.23
2019-06-08T13:45:22.138Z,1.50
2019-06-08T13:47:51.118Z,1.27
2019-06-08T13:50:22.056Z,1.47
2019-06-08T13:52:51.102Z,1.20
2019-06-08T13:55:36.652Z,1.30
2019-06-08T13:57:50.782Z,1.20
2019-06-08T14:00:23.694Z,1.30
2019-06-08T14:02:53.530Z,1.40
2019-06-08T14:05:30.858Z,1.27
2019-06-08T14:08:00.509Z,1.30
2019-06-08T14:10:38.523Z,1.33
2019-06-08T14:13:08.307Z,1.13
2019-06-08T14:15:38.083Z,1.10
2019-06-08T14:18:08.781Z,1.50
2019-06-08T14:20:38.547Z,1.30
2019-06-08T14:23:09.173Z,1.10
2019-06-08T14:25:50.469Z,1.33
2019-06-08T14:28:09.247Z,1.30
2019-06-08T14:30:38.675Z,1.60
2019-06-08T14:33:08.496Z,1.50
2019-06-08T14:35:37.677Z,1.47
2019-06-08T14:38:06.706Z,1.40
2019-06-08T14:40:37.574Z,1.43
2019-06-08T14:43:10.400Z,1.47
2019-06-08T14:45:37.785Z,1.47
2019-06-08T14:48:06.951Z,1.30
2019-06-08T14:50:40.387Z,1.80
2019-06-08T14:53:08.496Z,1.43
2019-06-08T14:55:38.676Z,1.23
2019-06-08T14:58:08.499Z,1.40
2019-06-08T15:00:38.311Z,1.40
2019-06-08T15:03:07.838Z,1.50
2019-06-08T15:05:37.167Z,1.73
2019-06-08T15:08:08.362Z,1.23
2019-06-08T15:10:39.633Z,1.07
2019-06-08T15:13:08.722Z,1.50
2019-06-08T15:15:38.208Z,1.43
2019-06-08T15:18:08.443Z,1.50
2019-06-08T15:20:38.215Z,1.67
2019-06-08T15:23:08.186Z,1.80
2019-06-08T15:25:38.737Z,1.07
2019-06-08T15:28:08.352Z,1.60
2019-06-08T15:30:38.167Z,1.37
2019-06-08T15:33:07.434Z,1.20
2019-06-08T15:35:37.680Z,1.57
2019-06-08T15:38:08.413Z,1.73
2019-06-08T15:40:37.966Z,1.53
2019-06-08T15:43:08.642Z,1.67
2019-06-08T15:45:37.847Z,1.43
2019-06-08T15:48:07.967Z,1.63
2019-06-08T15:50:37.838Z,1.30
2019-06-08T15:53:08.276Z,1.30
2019-06-08T15:55:38.326Z,1.67
2019-06-08T15:58:08.936Z,1.47
2019-06-08T16:00:38.187Z,1.40
2019-06-08T16:03:07.241Z,1.50
2019-06-08T16:05:36.244Z,1.43
2019-06-08T16:08:05.221Z,1.40
2019-06-08T16:10:34.359Z,1.50
2019-06-08T16:13:03.377Z,1.40
2019-06-08T16:15:33.398Z,1.30
2019-06-08T16:18:02.475Z,1.37
2019-06-08T16:20:31.667Z,1.50
2019-06-08T16:23:00.666Z,2.20
2019-06-08T16:25:29.752Z,1.50
2019-06-08T16:28:00.097Z,1.70
2019-06-08T16:30:29.258Z,1.30
2019-06-08T16:32:58.214Z,1.50
2019-06-08T16:35:28.103Z,1.47
2019-06-08T16:37:57.877Z,1.13
2019-06-08T16:40:27.636Z,1.40
2019-06-08T16:42:56.818Z,1.60
2019-06-08T16:45:26.871Z,1.10
2019-06-08T16:47:56.014Z,1.33
2019-06-08T16:50:25.236Z,1.40
2019-06-08T16:52:54.333Z,1.27
2019-06-08T16:55:23.286Z,1.10
2019-06-08T16:57:52.349Z,1.20
2019-06-08T17:00:40.405Z,0.97
2019-06-08T17:02:52.199Z,0.97
2019-06-08T17:05:21.167Z,1.20
2019-06-08T17:07:50.193Z,1.20
2019-06-08T17:10:19.243Z,0.87
2019-06-08T17:12:48.175Z,0.70
2019-06-08T17:15:17.677Z,0.90
2019-06-08T17:17:46.617Z,0.97
2019-06-08T17:20:17.022Z,0.80
2019-06-08T17:22:46.269Z,1.03
2019-06-08T17:25:15.722Z,0.70
2019-06-08T17:27:44.649Z,0.80
2019-06-08T17:30:14.166Z,0.90
2019-06-08T17:32:43.204Z,1.20
2019-06-08T17:35:12.299Z,0.80
2019-06-08T17:37:42.010Z,1.07
2019-06-08T17:40:11.570Z,0.93
2019-06-08T17:42:41.630Z,0.93
2019-06-08T17:45:10.979Z,1.10
2019-06-08T17:47:40.668Z,1.37
2019-06-08T17:50:10.331Z,0.87
2019-06-08T17:52:39.328Z,1.30
2019-06-08T17:55:08.823Z,0.70
2019-06-08T17:57:48.467Z,1.20
2019-06-08T18:00:09.836Z,1.03
2019-06-08T18:02:41.967Z,1.23
2019-06-08T18:05:11.321Z,1.00
2019-06-08T18:07:43.284Z,1.10
2019-06-08T18:10:11.199Z,1.23
2019-06-08T18:12:43.009Z,1.20
2019-06-08T18:15:11.439Z,1.10
2019-06-08T18:17:42.141Z,1.10
2019-06-08T18:20:13.887Z,1.23
2019-06-08T18:22:44.488Z,1.13
2019-06-08T18:25:17.190Z,1.17
2019-06-08T18:28:02.674Z,1.53
2019-06-08T18:30:18.911Z,1.50
2019-06-08T18:32:48.647Z,1.43
2019-06-08T18:35:18.380Z,1.20
2019-06-08T18:37:48.790Z,1.40
2019-06-08T18:40:18.266Z,1.40
2019-06-08T18:42:48.855Z,1.60
2019-06-08T18:45:19.311Z,1.87
2019-06-08T18:47:48.674Z,1.63
2019-06-08T18:50:17.826Z,1.50
2019-06-08T18:52:49.595Z,1.40
2019-06-08T18:55:18.430Z,1.70
2019-06-08T18:57:49.058Z,1.50
2019-06-08T19:00:18.512Z,1.77
2019-06-08T19:02:53.900Z,1.43
2019-06-08T19:05:21.191Z,1.37
2019-06-08T19:07:51.685Z,1.80
2019-06-08T19:10:32.230Z,1.50
2019-06-08T19:13:01.427Z,1.83
2019-06-08T19:15:38.841Z,1.50
2019-06-08T19:18:08.148Z,1.37
2019-06-08T19:20:40.781Z,1.47
2019-06-08T19:23:09.113Z,1.53
2019-06-08T19:25:40.692Z,1.63
2019-06-08T19:28:09.054Z,1.43
2019-06-08T19:30:40.468Z,1.40
2019-06-08T19:33:08.803Z,1.73
2019-06-08T19:35:39.042Z,2.00
2019-06-08T19:38:08.384Z,1.40
2019-06-08T19:40:39.147Z,1.57
2019-06-08T19:43:08.015Z,1.53
2019-06-08T19:45:39.148Z,2.00
2019-06-08T19:48:08.299Z,2.00
2019-06-08T19:50:38.598Z,2.20
2019-06-08T19:53:08.172Z,2.07
2019-06-08T19:55:37.357Z,1.93
2019-06-08T19:58:08.760Z,1.60
2019-06-08T20:00:40.117Z,2.40
2019-06-08T20:03:07.911Z,1.90
2019-06-08T20:05:37.795Z,2.23
2019-06-08T20:08:08.084Z,2.00
2019-06-08T20:10:37.267Z,2.30
2019-06-08T20:13:07.853Z,2.00
2019-06-08T20:15:43.293Z,1.83
2019-06-08T20:18:07.694Z,2.47
2019-06-08T20:20:38.161Z,2.20
2019-06-08T20:23:09.542Z,2.13
2019-06-08T20:25:38.226Z,2.13
2019-06-08T20:28:07.911Z,2.30
2019-06-08T20:30:37.102Z,2.07
2019-06-08T20:33:08.117Z,1.80
2019-06-08T20:35:37.546Z,1.90
2019-06-08T20:38:08.265Z,2.20
2019-06-08T20:40:38.327Z,2.50
2019-06-08T20:43:07.549Z,2.00
2019-06-08T20:45:37.489Z,2.37
2019-06-08T20:48:06.595Z,2.00
2019-06-08T20:50:37.669Z,2.40
2019-06-08T20:53:08.415Z,2.50
2019-06-08T20:55:40.191Z,2.17
2019-06-08T20:58:08.046Z,2.23
2019-06-08T21:00:37.809Z,2.40
2019-06-08T21:03:08.154Z,2.30
2019-06-08T21:05:37.321Z,2.50
2019-06-08T21:08:08.411Z,2.90
2019-06-08T21:10:37.919Z,2.80
2019-06-08T21:13:07.325Z,2.50
2019-06-08T21:15:38.228Z,2.60
2019-06-08T21:18:07.918Z,2.40
2019-06-08T21:20:37.788Z,2.70
2019-06-08T21:23:08.141Z,2.70
2019-06-08T21:25:37.433Z,2.90
2019-06-08T21:28:07.783Z,2.77
2019-06-08T21:30:37.751Z,2.53
2019-06-08T21:33:08.296Z,2.50
2019-06-08T21:35:37.636Z,2.20
2019-06-08T21:38:20.188Z,1.87
2019-06-08T21:40:37.663Z,1.90
2019-06-08T21:43:08.172Z,2.00
2019-06-08T21:45:38.059Z,1.60
2019-06-08T21:48:07.635Z,1.90
2019-06-08T21:50:37.123Z,1.90
2019-06-08T21:53:07.799Z,1.40
2019-06-08T21:55:38.006Z,1.87
2019-06-08T21:58:08.020Z,1.80
2019-06-08T22:00:42.937Z,1.70
2019-06-08T22:03:08.255Z,1.40
2019-06-08T22:05:37.692Z,1.47
2019-06-08T22:08:08.000Z,1.67
2019-06-08T22:10:37.671Z,1.40
2019-06-08T22:13:08.686Z,1.50
2019-06-08T22:15:38.027Z,1.23
2019-06-08T22:18:07.995Z,1.40
2019-06-08T22:20:38.302Z,1.47
2019-06-08T22:23:07.562Z,1.43
2019-06-08T22:25:38.575Z,1.23
2019-06-08T22:28:07.430Z,1.37
2019-06-08T22:30:42.846Z,1.77
2019-06-08T22:33:07.203Z,1.43
2019-06-08T22:35:37.273Z,1.47
2019-06-08T22:38:08.424Z,1.27
2019-06-08T22:40:37.922Z,1.40
2019-06-08T22:43:07.999Z,1.40
2019-06-08T22:45:37.579Z,1.30
2019-06-08T22:48:08.220Z,1.20
2019-06-08T22:50:38.234Z,1.40
2019-06-08T22:53:07.969Z,1.20
2019-06-08T22:55:38.209Z,1.40
2019-06-08T22:58:07.849Z,1.10
2019-06-08T23:00:51.247Z,1.60
2019-06-08T23:03:08.621Z,1.27
2019-06-08T23:05:38.097Z,1.80
2019-06-08T23:08:09.539Z,1.00
2019-06-08T23:10:38.019Z,1.50
2019-06-08T23:13:08.589Z,1.27
2019-06-08T23:15:37.930Z,1.30
2019-06-08T23:18:09.523Z,1.27
2019-06-08T23:20:37.709Z,1.50
2019-06-08T23:23:08.881Z,1.47
2019-06-08T23:25:37.418Z,1.60
2019-06-08T23:28:09.714Z,1.47
2019-06-08T23:30:38.280Z,1.37
2019-06-08T23:33:11.544Z,1.37
2019-06-08T23:35:57.107Z,1.60
2019-06-08T23:38:09.478Z,1.10
2019-06-08T23:40:38.697Z,1.30
2019-06-08T23:43:08.234Z,1.43
2019-06-08T23:45:37.964Z,1.57
2019-06-08T23:48:07.147Z,1.23
2019-06-08T23:50:37.913Z,1.40
2019-06-08T23:53:09.138Z,1.47
2019-06-08T23:55:37.587Z,1.50
2019-06-08T23:58:09.530Z,1.40
